createdAt,value
2023-03-26T00:01:16.572Z,100805.16
2023-03-26T00:03:43.629Z,100812.22
2023-03-26T00:06:15.483Z,100809.66
2023-03-26T00:08:43.676Z,100818.22
2023-03-26T00:11:13.863Z,100817.75
2023-03-26T00:13:41.442Z,100814.59
2023-03-26T00:16:20.150Z,100813.97
2023-03-26T00:18:46.579Z,100806.16
2023-03-26T00:21:16.196Z,100809.84
2023-03-26T00:23:45.165Z,100805.19
2023-03-26T00:26:15.349Z,100807.16
2023-03-26T00:28:42.648Z,100795.53
2023-03-26T00:31:12.662Z,100805.06
2023-03-26T00:33:40.674Z,100796.84
2023-03-26T00:36:12.379Z,100790.75
2023-03-26T00:38:48.894Z,100788.03
2023-03-26T00:41:17.903Z,100782.91
2023-03-26T00:43:46.085Z,100781.06
2023-03-26T00:46:15.520Z,100771.28
2023-03-26T00:48:47.460Z,100769.59
2023-03-26T00:51:15.772Z,100769.19
2023-03-26T00:53:46.499Z,100773.94
2023-03-26T00:56:13.278Z,100763.41
2023-03-26T00:58:44.942Z,100774.56
2023-03-26T01:01:17.190Z,100772.22
2023-03-26T01:03:53.642Z,100764.75
2023-03-26T01:06:29.867Z,100760.81
2023-03-26T01:08:56.616Z,100755.16
2023-03-26T01:11:27.444Z,100750.84
2023-03-26T01:14:07.258Z,100750.09
2023-03-26T01:16:42.685Z,100747.16
2023-03-26T01:19:20.079Z,100740.78
2023-03-26T01:21:47.405Z,100729.63
2023-03-26T01:24:16.495Z,100729.75
2023-03-26T01:26:42.790Z,100727.19
2023-03-26T01:29:19.942Z,100725.47
2023-03-26T01:32:20.632Z,100718.38
2023-03-26T01:35:03.509Z,100717.38
2023-03-26T01:37:40.430Z,100711.16
2023-03-26T01:40:26.730Z,100706.13
2023-03-26T01:43:37.729Z,100702.63
2023-03-26T01:46:07.344Z,100696.50
2023-03-26T01:48:40.222Z,100700.16
2023-03-26T01:51:12.071Z,100693.81
2023-03-26T01:53:46.352Z,100689.88
2023-03-26T01:56:26.959Z,100680.19
2023-03-26T01:59:33.047Z,100678.81
2023-03-26T02:02:02.957Z,100674.53
2023-03-26T02:04:45.848Z,100668.41
2023-03-26T02:07:49.896Z,100666.72
2023-03-26T02:10:38.686Z,100665.13
2023-03-26T02:13:06.383Z,100667.13
2023-03-26T02:15:35.559Z,100665.84
2023-03-26T02:18:01.958Z,100657.53
2023-03-26T02:20:28.297Z,100655.81
2023-03-26T02:22:58.549Z,100649.47
2023-03-26T02:25:29.654Z,100646.75
2023-03-26T02:27:55.950Z,100640.09
2023-03-26T02:30:24.909Z,100638.28
2023-03-26T02:32:52.552Z,100645.66
2023-03-26T02:35:21.606Z,100640.28
2023-03-26T02:37:48.241Z,100636.63
2023-03-26T02:40:14.721Z,100642.88
2023-03-26T02:42:45.089Z,100635.47
2023-03-26T02:45:11.404Z,100635.34
2023-03-26T02:47:37.759Z,100623.59
2023-03-26T02:50:04.632Z,100625.56
2023-03-26T02:52:31.414Z,100627.16
2023-03-26T02:54:57.711Z,100632.53
2023-03-26T02:57:27.086Z,100623.44
2023-03-26T02:59:56.210Z,100633.00
2023-03-26T03:02:22.833Z,100624.03
2023-03-26T03:04:49.222Z,100626.75
2023-03-26T03:07:17.906Z,100622.34
2023-03-26T03:09:46.748Z,100629.56
2023-03-26T03:12:13.051Z,100619.38
2023-03-26T03:14:40.557Z,100617.78
2023-03-26T03:17:08.373Z,100611.66
2023-03-26T03:19:34.675Z,100619.66
2023-03-26T03:22:00.990Z,100608.72
2023-03-26T03:24:27.343Z,100608.00
2023-03-26T03:26:53.841Z,100605.44
2023-03-26T03:29:27.493Z,100601.63
2023-03-26T03:31:53.844Z,100596.81
2023-03-26T03:34:20.146Z,100600.78
2023-03-26T03:36:46.501Z,100591.13
2023-03-26T03:39:19.343Z,100602.91
2023-03-26T03:41:50.037Z,100596.78
2023-03-26T03:44:16.338Z,100593.94
2023-03-26T03:46:42.701Z,100593.66
2023-03-26T03:49:09.078Z,100591.13
2023-03-26T03:51:35.359Z,100594.91
2023-03-26T03:54:01.712Z,100592.34
2023-03-26T03:56:30.478Z,100595.41
2023-03-26T03:58:56.822Z,100585.00
2023-03-26T04:01:25.621Z,100589.53
2023-03-26T04:03:54.356Z,100575.94
2023-03-26T04:06:20.756Z,100577.91
2023-03-26T04:08:47.164Z,100579.59
2023-03-26T04:11:19.000Z,100564.31
2023-03-26T04:13:45.392Z,100561.47
2023-03-26T04:16:14.178Z,100559.63
2023-03-26T04:18:40.964Z,100559.63
2023-03-26T04:21:07.665Z,100557.78
2023-03-26T04:23:34.500Z,100550.53
2023-03-26T04:26:04.693Z,100555.94
2023-03-26T04:28:30.990Z,100548.72
2023-03-26T04:30:59.750Z,100545.44
2023-03-26T04:33:35.058Z,100546.41
2023-03-26T04:36:03.479Z,100545.44
2023-03-26T04:38:31.674Z,100530.13
2023-03-26T04:40:58.006Z,100530.72
2023-03-26T04:43:24.340Z,100529.13
2023-03-26T04:45:50.658Z,100517.47
2023-03-26T04:48:18.736Z,100516.50
2023-03-26T04:50:45.626Z,100518.06
2023-03-26T04:53:15.452Z,100512.69
2023-03-26T04:55:49.693Z,100502.75
2023-03-26T04:58:16.268Z,100507.00
2023-03-26T05:00:45.428Z,100496.94
2023-03-26T05:03:12.436Z,100497.09
2023-03-26T05:05:40.029Z,100492.69
2023-03-26T05:08:06.529Z,100489.28
2023-03-26T05:10:36.424Z,100485.72
2023-03-26T05:13:03.887Z,100483.31
2023-03-26T05:15:30.193Z,100473.38
2023-03-26T05:17:57.767Z,100475.38
2023-03-26T05:20:27.603Z,100478.06
2023-03-26T05:22:54.002Z,100472.69
2023-03-26T05:25:25.669Z,100475.66
2023-03-26T05:27:52.130Z,100480.91
2023-03-26T05:30:24.648Z,100475.78
2023-03-26T05:32:53.485Z,100466.97
2023-03-26T05:35:20.946Z,100459.63
2023-03-26T05:37:50.119Z,100454.09
2023-03-26T05:40:17.098Z,100457.03
2023-03-26T05:42:45.073Z,100455.34
2023-03-26T05:45:15.796Z,100444.56
2023-03-26T05:47:42.321Z,100438.19
2023-03-26T05:50:09.942Z,100445.28
2023-03-26T05:52:39.733Z,100442.59
2023-03-26T05:55:13.356Z,100438.19
2023-03-26T05:57:42.241Z,100435.47
2023-03-26T06:00:08.998Z,100434.50
2023-03-26T06:02:39.323Z,100427.84
2023-03-26T06:05:05.998Z,100427.00
2023-03-26T06:07:32.326Z,100421.31
2023-03-26T06:10:01.336Z,100422.19
2023-03-26T06:12:29.979Z,100423.59
2023-03-26T06:14:56.264Z,100417.09
2023-03-26T06:17:22.622Z,100410.84
2023-03-26T06:19:51.302Z,100409.28
2023-03-26T06:22:18.812Z,100407.72
2023-03-26T06:24:45.118Z,100403.75
2023-03-26T06:27:11.478Z,100393.53
2023-03-26T06:29:37.887Z,100393.44
2023-03-26T06:32:16.262Z,100394.97
2023-03-26T06:34:45.741Z,100395.97
2023-03-26T06:37:16.736Z,100396.56
2023-03-26T06:39:43.098Z,100392.13
2023-03-26T06:42:09.411Z,100397.22
2023-03-26T06:44:35.748Z,100394.94
2023-03-26T06:47:02.099Z,100395.97
2023-03-26T06:49:28.580Z,100393.50
2023-03-26T06:51:54.917Z,100400.06
2023-03-26T06:54:21.204Z,100403.03
2023-03-26T06:56:47.530Z,100394.22
2023-03-26T06:59:13.837Z,100388.97
2023-03-26T07:01:41.556Z,100393.28
2023-03-26T07:04:07.911Z,100389.03
2023-03-26T07:06:34.357Z,100398.41
2023-03-26T07:09:03.516Z,100382.94
2023-03-26T07:11:29.902Z,100388.88
2023-03-26T07:13:59.217Z,100387.91
2023-03-26T07:16:30.950Z,100381.94
2023-03-26T07:19:07.074Z,100385.06
2023-03-26T07:21:36.235Z,100388.59
2023-03-26T07:24:05.798Z,100391.72
2023-03-26T07:27:06.019Z,100385.91
2023-03-26T07:29:43.163Z,100393.41
2023-03-26T07:32:22.832Z,100382.31
2023-03-26T07:35:08.027Z,100385.16
2023-03-26T07:37:48.911Z,100373.94
2023-03-26T07:40:53.124Z,100374.38
2023-03-26T07:43:37.963Z,100381.16
2023-03-26T07:46:11.005Z,100385.03
2023-03-26T07:48:45.877Z,100379.59
2023-03-26T07:51:12.845Z,100375.91
2023-03-26T07:53:39.434Z,100378.88
2023-03-26T07:56:11.580Z,100373.63
2023-03-26T07:59:01.782Z,100367.41
2023-03-26T08:01:52.701Z,100378.47
2023-03-26T08:04:43.272Z,100374.50
2023-03-26T08:07:41.868Z,100369.94
2023-03-26T08:10:40.313Z,100369.41
2023-03-26T08:13:34.150Z,100374.06
2023-03-26T08:16:10.368Z,100368.13
2023-03-26T08:19:15.381Z,100373.06
2023-03-26T08:21:59.177Z,100370.09
2023-03-26T08:25:03.247Z,100367.25
2023-03-26T08:27:40.194Z,100370.53
2023-03-26T08:30:18.613Z,100374.38
2023-03-26T08:33:09.419Z,100362.00
2023-03-26T08:35:37.092Z,100362.56
2023-03-26T08:38:03.586Z,100363.69
2023-03-26T08:40:44.854Z,100365.94
2023-03-26T08:43:39.239Z,100364.38
2023-03-26T08:46:14.670Z,100359.31
2023-03-26T08:49:18.171Z,100369.75
2023-03-26T08:52:08.466Z,100364.47
2023-03-26T08:54:47.619Z,100370.44
2023-03-26T08:57:50.389Z,100366.91
2023-03-26T09:00:46.565Z,100364.38
2023-03-26T09:03:36.597Z,100365.78
2023-03-26T09:07:01.865Z,100367.41
2023-03-26T09:09:40.130Z,100367.53
2023-03-26T09:12:27.382Z,100367.25
2023-03-26T09:15:12.699Z,100364.63
2023-03-26T09:17:52.609Z,100371.34
2023-03-26T09:20:47.651Z,100371.00
2023-03-26T09:23:40.006Z,100363.28
2023-03-26T09:26:32.054Z,100358.25
2023-03-26T09:29:21.281Z,100359.72
2023-03-26T09:31:59.509Z,100365.28
2023-03-26T09:34:41.486Z,100362.84
2023-03-26T09:37:24.829Z,100369.91
2023-03-26T09:40:13.782Z,100367.06
2023-03-26T09:42:49.400Z,100367.00
2023-03-26T09:45:52.337Z,100364.00
2023-03-26T09:48:41.115Z,100367.56
2023-03-26T09:51:07.621Z,100374.78
2023-03-26T09:54:05.083Z,100375.88
2023-03-26T09:56:50.072Z,100384.94
2023-03-26T09:59:49.600Z,100383.94
2023-03-26T10:03:02.117Z,100378.09
2023-03-26T10:05:44.437Z,100385.19
2023-03-26T10:08:22.828Z,100387.22
2023-03-26T10:10:59.253Z,100386.81
2023-03-26T10:13:25.653Z,100391.69
2023-03-26T10:16:13.252Z,100389.97
2023-03-26T10:19:21.258Z,100391.28
2023-03-26T10:22:13.278Z,100387.56
2023-03-26T10:24:48.458Z,100392.09
2023-03-26T10:27:26.521Z,100400.09
2023-03-26T10:30:37.288Z,100398.97
2023-03-26T10:33:22.436Z,100411.59
2023-03-26T10:36:13.047Z,100408.63
2023-03-26T10:39:04.450Z,100405.19
2023-03-26T10:41:49.557Z,100409.19
2023-03-26T10:44:38.045Z,100414.88
2023-03-26T10:47:19.200Z,100409.59
2023-03-26T10:50:06.077Z,100414.28
2023-03-26T10:52:41.502Z,100411.75
2023-03-26T10:55:15.276Z,100416.56
2023-03-26T10:57:48.976Z,100420.41
2023-03-26T11:00:26.629Z,100407.75
2023-03-26T11:03:12.852Z,100417.38
2023-03-26T11:06:17.260Z,100421.53
2023-03-26T11:09:01.620Z,100423.34
2023-03-26T11:11:31.711Z,100418.38
2023-03-26T11:14:28.221Z,100432.47
2023-03-26T11:17:40.795Z,100426.50
2023-03-26T11:20:20.214Z,100422.09
2023-03-26T11:23:03.557Z,100430.34
2023-03-26T11:25:45.028Z,100450.63
2023-03-26T11:28:41.127Z,100436.00
2023-03-26T11:31:37.734Z,100440.44
2023-03-26T11:34:13.181Z,100439.56
2023-03-26T11:36:46.138Z,100448.50
2023-03-26T11:39:20.513Z,100447.66
2023-03-26T11:41:49.654Z,100457.44
2023-03-26T11:45:00.482Z,100463.56
2023-03-26T11:47:33.965Z,100460.09
2023-03-26T11:50:04.589Z,100463.94
2023-03-26T11:52:30.918Z,100460.69
2023-03-26T11:55:05.980Z,100467.38
2023-03-26T11:57:36.684Z,100470.78
2023-03-26T12:00:11.877Z,100474.31
2023-03-26T12:02:41.323Z,100476.28
2023-03-26T12:05:20.125Z,100475.47
2023-03-26T12:07:52.974Z,100483.97
2023-03-26T12:10:39.386Z,100478.97
2023-03-26T12:13:28.291Z,100478.00
2023-03-26T12:16:09.841Z,100485.81
2023-03-26T12:18:41.640Z,100481.84
2023-03-26T12:21:18.892Z,100493.50
2023-03-26T12:23:45.132Z,100488.13
2023-03-26T12:26:16.494Z,100492.81
2023-03-26T12:28:50.641Z,100485.72
2023-03-26T12:31:19.792Z,100492.81
2023-03-26T12:34:06.105Z,100491.97
2023-03-26T12:36:34.798Z,100495.50
2023-03-26T12:40:11.854Z,100499.16
2023-03-26T12:44:46.870Z,100494.56
2023-03-26T12:45:17.966Z,100494.75
2023-03-26T12:47:59.790Z,100506.78
2023-03-26T12:50:45.218Z,100494.22
2023-03-26T12:53:27.910Z,100495.34
2023-03-26T12:56:24.217Z,100505.13
2023-03-26T12:59:08.758Z,100499.88
2023-03-26T13:02:26.456Z,100508.72
2023-03-26T13:05:06.820Z,100513.75
2023-03-26T13:07:36.953Z,100518.75
2023-03-26T13:10:27.998Z,100520.91
2023-03-26T13:13:41.627Z,100519.84
2023-03-26T13:16:42.039Z,100521.81
2023-03-26T13:19:20.785Z,100522.50
2023-03-26T13:21:51.751Z,100532.19
2023-03-26T13:24:53.268Z,100519.22
2023-03-26T13:27:31.179Z,100536.72
2023-03-26T13:30:20.133Z,100540.78
2023-03-26T13:32:52.389Z,100538.66
2023-03-26T13:35:36.862Z,100541.78
2023-03-26T13:38:06.145Z,100540.47
2023-03-26T13:40:41.523Z,100542.78
2023-03-26T13:43:34.090Z,100547.16
2023-03-26T13:46:17.204Z,100549.56
2023-03-26T13:48:59.769Z,100550.44
2023-03-26T13:51:40.281Z,100542.44
2023-03-26T13:54:19.196Z,100547.53
2023-03-26T13:56:59.665Z,100552.59
2023-03-26T13:59:39.468Z,100559.56
2023-03-26T14:02:14.896Z,100557.47
2023-03-26T14:04:47.521Z,100569.81
2023-03-26T14:07:32.572Z,100559.72
2023-03-26T14:10:06.201Z,100567.50
2023-03-26T14:13:04.522Z,100574.38
2023-03-26T14:15:37.334Z,100568.09
2023-03-26T14:18:28.781Z,100579.41
2023-03-26T14:21:14.013Z,100584.50
2023-03-26T14:24:18.771Z,100593.16
2023-03-26T14:27:09.694Z,100597.56
2023-03-26T14:29:56.224Z,100597.47
2023-03-26T14:32:43.139Z,100597.22
2023-03-26T14:35:37.822Z,100603.31
2023-03-26T14:38:26.329Z,100596.94
2023-03-26T14:41:18.425Z,100610.31
2023-03-26T14:44:17.281Z,100614.16
2023-03-26T14:46:58.673Z,100623.09
2023-03-26T14:50:03.755Z,100630.50
2023-03-26T14:52:52.060Z,100634.91
2023-03-26T14:55:40.849Z,100644.00
2023-03-26T14:58:15.245Z,100647.53
2023-03-26T15:01:22.426Z,100658.63
2023-03-26T15:04:26.323Z,100655.22
2023-03-26T15:07:32.857Z,100661.16
2023-03-26T15:10:25.490Z,100665.16
2023-03-26T15:13:20.933Z,100671.69
2023-03-26T15:16:09.545Z,100672.13
2023-03-26T15:18:50.421Z,100677.09
2023-03-26T15:21:51.015Z,100678.94
2023-03-26T15:24:42.821Z,100688.75
2023-03-26T15:27:21.348Z,100688.03
2023-03-26T15:30:16.397Z,100687.22
2023-03-26T15:33:14.820Z,100693.63
2023-03-26T15:36:27.996Z,100687.94
2023-03-26T15:39:32.063Z,100699.13
2023-03-26T15:42:16.591Z,100708.81
2023-03-26T15:44:54.532Z,100712.09
2023-03-26T15:47:48.146Z,100713.66
2023-03-26T15:50:57.557Z,100721.34
2023-03-26T15:53:49.798Z,100731.31
2023-03-26T15:56:36.078Z,100733.44
2023-03-26T15:59:41.290Z,100743.88
2023-03-26T16:02:13.670Z,100753.63
2023-03-26T16:04:59.519Z,100755.06
2023-03-26T16:08:12.089Z,100760.31
2023-03-26T16:10:58.393Z,100778.88
2023-03-26T16:13:41.483Z,100783.41
2023-03-26T16:16:14.464Z,100790.41
2023-03-26T16:18:57.888Z,100795.31
2023-03-26T16:21:38.938Z,100798.59
2023-03-26T16:24:05.388Z,100800.13
2023-03-26T16:26:31.836Z,100809.47
2023-03-26T16:29:10.220Z,100809.66
2023-03-26T16:31:38.704Z,100821.44
2023-03-26T16:34:05.759Z,100806.59
2023-03-26T16:36:35.970Z,100833.88
2023-03-26T16:39:08.245Z,100836.50
2023-03-26T16:41:55.712Z,100836.38
2023-03-26T16:45:00.746Z,100845.69
2023-03-26T16:47:59.172Z,100852.69
2023-03-26T16:50:49.801Z,100857.16
2023-03-26T16:53:39.252Z,100863.00
2023-03-26T16:56:20.902Z,100872.34
2023-03-26T16:58:59.728Z,100880.78
2023-03-26T17:01:34.971Z,100879.47
2023-03-26T17:04:09.611Z,100889.47
2023-03-26T17:06:55.193Z,100899.69
2023-03-26T17:09:51.985Z,100896.34
2023-03-26T17:12:31.436Z,100907.03
2023-03-26T17:15:03.892Z,100915.72
2023-03-26T17:18:01.207Z,100921.00
2023-03-26T17:20:37.240Z,100932.38
2023-03-26T17:23:09.849Z,100932.28
2023-03-26T17:25:44.237Z,100946.34
2023-03-26T17:28:34.424Z,100948.91
2023-03-26T17:31:21.678Z,100948.88
2023-03-26T17:33:52.044Z,100958.56
2023-03-26T17:36:42.854Z,100965.16
2023-03-26T17:39:21.836Z,100970.28
2023-03-26T17:42:18.204Z,100974.09
2023-03-26T17:45:01.119Z,100991.34
2023-03-26T17:47:29.297Z,100993.16
2023-03-26T17:50:05.096Z,100991.34
2023-03-26T17:52:48.025Z,100988.03
2023-03-26T17:55:25.770Z,100999.03
2023-03-26T17:57:57.856Z,101004.47
2023-03-26T18:00:31.498Z,101016.34
2023-03-26T18:03:06.022Z,101012.06
2023-03-26T18:05:35.766Z,101022.56
2023-03-26T18:08:29.991Z,101023.13
2023-03-26T18:11:18.141Z,101025.94
2023-03-26T18:14:07.621Z,101035.97
2023-03-26T18:17:12.572Z,101043.72
2023-03-26T18:20:07.868Z,101053.81
2023-03-26T18:22:34.801Z,101054.88
2023-03-26T18:25:02.505Z,101063.72
2023-03-26T18:27:36.221Z,101063.31
2023-03-26T18:30:17.179Z,101078.50
2023-03-26T18:33:12.097Z,101077.50
2023-03-26T18:35:53.390Z,101083.63
2023-03-26T18:38:36.780Z,101093.75
2023-03-26T18:41:05.884Z,101103.09
2023-03-26T18:43:44.606Z,101110.81
2023-03-26T18:46:14.172Z,101111.44
2023-03-26T18:48:42.491Z,101121.78
2023-03-26T18:51:12.686Z,101123.88
2023-03-26T18:53:50.366Z,101129.38
2023-03-26T18:56:42.575Z,101141.00
2023-03-26T18:59:35.826Z,101149.38
2023-03-26T19:02:14.050Z,101162.81
2023-03-26T19:04:52.698Z,101162.63
2023-03-26T19:07:23.650Z,101166.09
2023-03-26T19:09:51.694Z,101167.50
2023-03-26T19:12:22.910Z,101176.22
2023-03-26T19:15:09.800Z,101170.75
2023-03-26T19:17:44.216Z,101175.91
2023-03-26T19:20:20.786Z,101186.00
2023-03-26T19:22:48.198Z,101192.44
2023-03-26T19:25:41.162Z,101201.47
2023-03-26T19:28:16.360Z,101197.28
2023-03-26T19:30:42.858Z,101206.09
2023-03-26T19:33:22.995Z,101206.53
2023-03-26T19:36:01.737Z,101216.75
2023-03-26T19:38:29.830Z,101218.03
2023-03-26T19:41:00.284Z,101228.25
2023-03-26T19:43:27.223Z,101228.97
2023-03-26T19:46:00.470Z,101240.25
2023-03-26T19:48:45.796Z,101238.00
2023-03-26T19:51:22.158Z,101247.06
2023-03-26T19:53:52.963Z,101246.50
2023-03-26T19:56:20.677Z,101242.84
2023-03-26T19:58:47.828Z,101254.19
2023-03-26T20:01:25.875Z,101257.63
2023-03-26T20:03:56.174Z,101270.38
2023-03-26T20:06:33.992Z,101265.56
2023-03-26T20:09:05.850Z,101270.56
2023-03-26T20:11:35.098Z,101276.91
2023-03-26T20:14:16.390Z,101279.78
2023-03-26T20:16:45.197Z,101290.63
2023-03-26T20:19:12.573Z,101292.81
2023-03-26T20:21:38.879Z,101293.09
2023-03-26T20:24:12.433Z,101297.50
2023-03-26T20:26:38.802Z,101311.88
2023-03-26T20:29:06.324Z,101309.09
2023-03-26T20:31:32.733Z,101312.22
2023-03-26T20:34:01.473Z,101308.78
2023-03-26T20:36:33.136Z,101311.69
2023-03-26T20:39:02.658Z,101321.44
2023-03-26T20:41:29.065Z,101322.97
2023-03-26T20:43:56.856Z,101322.50
2023-03-26T20:46:31.303Z,101334.28
2023-03-26T20:49:00.579Z,101336.97
2023-03-26T20:51:27.085Z,101336.31
2023-03-26T20:53:53.477Z,101353.38
2023-03-26T20:56:20.397Z,101353.78
2023-03-26T20:58:50.579Z,101359.63
2023-03-26T21:01:21.410Z,101365.97
2023-03-26T21:03:47.741Z,101363.19
2023-03-26T21:06:17.169Z,101365.41
2023-03-26T21:08:45.026Z,101373.66
2023-03-26T21:11:26.471Z,101373.06
2023-03-26T21:14:05.832Z,101377.91
2023-03-26T21:16:32.791Z,101378.22
2023-03-26T21:18:59.452Z,101382.22
2023-03-26T21:21:45.461Z,101387.78
2023-03-26T21:24:23.257Z,101391.69
2023-03-26T21:26:57.056Z,101399.06
2023-03-26T21:29:23.682Z,101395.69
2023-03-26T21:31:51.607Z,101397.22
2023-03-26T21:34:20.130Z,101406.66
2023-03-26T21:36:46.653Z,101404.25
2023-03-26T21:39:13.250Z,101405.97
2023-03-26T21:42:05.479Z,101410.56
2023-03-26T21:44:35.211Z,101419.66
2023-03-26T21:47:01.792Z,101420.69
2023-03-26T21:49:28.547Z,101437.13
2023-03-26T21:51:57.566Z,101437.13
2023-03-26T21:54:27.430Z,101442.06
2023-03-26T21:57:10.288Z,101456.41
2023-03-26T21:59:47.166Z,101452.69
2023-03-26T22:03:01.511Z,101466.00
2023-03-26T22:06:06.375Z,101460.53
2023-03-26T22:08:40.814Z,101464.34
2023-03-26T22:11:10.812Z,101468.94
2023-03-26T22:13:38.878Z,101471.44
2023-03-26T22:16:11.934Z,101486.22
2023-03-26T22:18:40.448Z,101485.34
2023-03-26T22:21:09.218Z,101495.88
2023-03-26T22:23:35.599Z,101486.81
2023-03-26T22:26:03.164Z,101486.53
2023-03-26T22:28:30.395Z,101499.75
2023-03-26T22:30:56.966Z,101496.34
2023-03-26T22:33:25.631Z,101504.19
2023-03-26T22:35:53.185Z,101499.72
2023-03-26T22:38:21.898Z,101506.72
2023-03-26T22:40:55.382Z,101506.03
2023-03-26T22:43:21.792Z,101513.13
2023-03-26T22:45:51.841Z,101518.38
2023-03-26T22:48:23.163Z,101522.28
2023-03-26T22:51:01.223Z,101531.72
2023-03-26T22:53:27.942Z,101537.34
2023-03-26T22:55:56.465Z,101535.94
2023-03-26T22:58:22.883Z,101551.19
2023-03-26T23:00:51.522Z,101548.41
2023-03-26T23:03:20.839Z,101554.34
2023-03-26T23:06:06.666Z,101551.63
2023-03-26T23:08:34.276Z,101558.53
2023-03-26T23:11:01.714Z,101566.63
2023-03-26T23:13:35.019Z,101565.06
2023-03-26T23:16:01.474Z,101578.34
2023-03-26T23:18:28.908Z,101573.78
2023-03-26T23:20:58.256Z,101579.75
2023-03-26T23:23:34.692Z,101577.41
2023-03-26T23:26:03.541Z,101586.84
2023-03-26T23:28:31.471Z,101593.75
2023-03-26T23:31:01.448Z,101591.69
2023-03-26T23:33:32.747Z,101599.50
2023-03-26T23:36:00.338Z,101600.97
2023-03-26T23:38:43.452Z,101596.16
2023-03-26T23:41:11.024Z,101611.88
2023-03-26T23:43:37.307Z,101614.53
2023-03-26T23:46:03.694Z,101617.75
2023-03-26T23:48:30.053Z,101620.91
2023-03-26T23:51:03.193Z,101632.31
2023-03-26T23:53:31.616Z,101636.78
2023-03-26T23:55:58.620Z,101635.03
2023-03-26T23:58:28.110Z,101646.19
